createdAt,value
2019-04-05T00:04:32.713Z,11.63
2019-04-05T00:09:24.336Z,10.33
2019-04-05T00:14:16.723Z,11.40
2019-04-05T00:19:07.634Z,11.80
2019-04-05T00:23:59.487Z,10.90
2019-04-05T00:28:51.760Z,11.30
2019-04-05T00:33:41.340Z,11.33
2019-04-05T00:38:32.250Z,11.10
2019-04-05T00:43:23.168Z,10.90
2019-04-05T00:48:14.088Z,11.63
2019-04-05T00:53:05.004Z,11.57
2019-04-05T00:57:55.914Z,11.20
2019-04-05T01:02:46.833Z,11.60
2019-04-05T01:07:37.726Z,11.23
2019-04-05T01:12:29.362Z,10.67
2019-04-05T01:17:25.127Z,11.98
2019-04-05T01:22:11.953Z,12.55
2019-04-05T01:27:02.861Z,11.47
2019-04-05T01:31:53.801Z,9.80
2019-04-05T01:36:44.728Z,11.30
2019-04-05T01:41:35.634Z,12.43
2019-04-05T01:46:26.532Z,12.10
2019-04-05T01:51:17.446Z,13.57
2019-04-05T01:56:08.373Z,12.32
2019-04-05T02:00:59.275Z,13.80
2019-04-05T02:05:50.976Z,13.23
2019-04-05T02:10:41.896Z,12.13
2019-04-05T02:15:33.543Z,12.43
2019-04-05T02:20:24.442Z,13.10
2019-04-05T02:25:15.348Z,12.88
2019-04-05T02:30:06.271Z,13.23
2019-04-05T02:34:57.182Z,13.60
2019-04-05T02:39:48.096Z,14.97
2019-04-05T02:44:38.995Z,13.57
2019-04-05T02:49:29.903Z,13.80
2019-04-05T02:54:20.829Z,13.80
2019-04-05T02:59:11.756Z,12.50
2019-04-05T03:04:02.675Z,13.47
2019-04-05T03:08:53.592Z,14.80
2019-04-05T03:13:45.442Z,13.60
2019-04-05T03:18:36.348Z,12.47
2019-04-05T03:23:27.259Z,13.82
2019-04-05T03:28:18.172Z,14.33
2019-04-05T03:33:09.085Z,13.90
2019-04-05T03:38:00.748Z,34.33
2019-04-05T03:42:51.657Z,15.83
2019-04-05T03:47:42.562Z,14.47
2019-04-05T03:52:34.277Z,12.67
2019-04-05T03:57:25.948Z,14.17
2019-04-05T04:02:16.871Z,16.08
2019-04-05T04:07:07.790Z,13.93
2019-04-05T04:11:58.687Z,15.63
2019-04-05T04:16:50.372Z,15.53
2019-04-05T04:21:42.338Z,15.10
2019-04-05T04:26:33.243Z,17.53
2019-04-05T04:31:24.150Z,15.32
2019-04-05T04:36:15.127Z,14.73
2019-04-05T04:41:06.776Z,13.27
2019-04-05T04:45:57.693Z,20.67
2019-04-05T04:50:48.599Z,15.47
2019-04-05T04:55:40.258Z,16.73
2019-04-05T05:00:31.167Z,16.30
2019-04-05T05:05:22.109Z,16.80
2019-04-05T05:10:13.022Z,24.12
2019-04-05T05:15:04.855Z,34.57
2019-04-05T05:19:55.775Z,30.83
2019-04-05T05:24:46.725Z,33.00
2019-04-05T05:29:37.630Z,37.40
2019-04-05T05:34:28.523Z,32.27
2019-04-05T05:39:19.425Z,34.92
2019-04-05T05:44:11.062Z,38.10
2019-04-05T05:49:02.731Z,39.60
2019-04-05T05:53:53.640Z,40.57
2019-04-05T05:58:44.554Z,40.83
2019-04-05T06:03:35.450Z,42.53
2019-04-05T06:08:29.170Z,48.13
2019-04-05T06:13:18.007Z,44.90
2019-04-05T06:18:12.052Z,41.20
2019-04-05T06:23:00.620Z,46.37
2019-04-05T06:27:51.544Z,44.80
2019-04-05T06:32:42.463Z,46.90
2019-04-05T06:37:34.866Z,41.70
2019-04-05T06:42:25.863Z,43.33
2019-04-05T06:47:17.503Z,49.07
2019-04-05T06:52:09.156Z,57.60
2019-04-05T06:57:00.061Z,54.17
2019-04-05T07:01:51.770Z,56.80
2019-04-05T07:06:42.762Z,50.67
2019-04-05T07:11:33.678Z,50.90
2019-04-05T07:16:24.594Z,54.23
2019-04-05T07:21:17.281Z,56.80
2019-04-05T07:26:06.442Z,61.30
2019-04-05T07:30:57.349Z,57.53
2019-04-05T07:35:48.250Z,64.00
2019-04-05T07:40:39.154Z,61.90
2019-04-05T07:45:30.091Z,61.63
2019-04-05T07:50:20.995Z,64.10
2019-04-05T07:55:11.908Z,63.10
2019-04-05T08:00:03.680Z,61.57
2019-04-05T08:04:54.759Z,62.90
2019-04-05T08:09:45.495Z,65.83
2019-04-05T08:14:36.403Z,64.20
2019-04-05T08:19:27.314Z,71.70
2019-04-05T08:24:18.960Z,59.70
2019-04-05T08:29:09.875Z,69.50
2019-04-05T08:34:02.214Z,69.70
2019-04-05T08:38:53.128Z,66.90
2019-04-05T08:43:47.064Z,59.67
2019-04-05T08:48:36.099Z,66.90
2019-04-05T08:53:28.635Z,70.40
2019-04-05T08:58:32.625Z,68.63
2019-04-05T09:03:12.080Z,66.85
2019-04-05T09:08:02.974Z,62.58
2019-04-05T09:12:53.879Z,62.20
2019-04-05T09:17:45.539Z,62.97
2019-04-05T09:22:36.454Z,60.70
2019-04-05T09:27:27.362Z,61.30
2019-04-05T09:32:18.268Z,60.27
2019-04-05T09:37:09.944Z,61.57
2019-04-05T09:42:00.850Z,67.27
2019-04-05T09:46:51.748Z,64.17
2019-04-05T09:51:42.655Z,72.90
2019-04-05T09:56:34.397Z,61.83
2019-04-05T10:01:26.050Z,66.90
2019-04-05T10:06:16.965Z,64.50
2019-04-05T10:11:07.878Z,62.07
2019-04-05T10:15:58.795Z,58.10
2019-04-05T10:20:49.702Z,60.37
2019-04-05T10:25:43.761Z,60.17
2019-04-05T10:30:32.278Z,51.87
2019-04-05T10:35:23.184Z,63.33
2019-04-05T10:40:14.115Z,64.47
2019-04-05T10:45:05.884Z,73.70
2019-04-05T10:50:02.893Z,63.55
2019-04-05T10:54:47.734Z,68.53
2019-04-05T10:59:38.646Z,72.43
2019-04-05T11:04:29.572Z,71.60
2019-04-05T11:09:20.503Z,79.80
2019-04-05T11:14:14.052Z,70.23
2019-04-05T11:19:03.903Z,65.20
2019-04-05T11:23:56.257Z,61.03
2019-04-05T11:28:46.508Z,66.33
2019-04-05T11:33:37.410Z,61.47
2019-04-05T11:38:28.314Z,58.33
2019-04-05T11:43:19.209Z,55.53
2019-04-05T11:48:10.863Z,57.40
2019-04-05T11:53:01.787Z,52.63
2019-04-05T11:57:54.806Z,54.70
2019-04-05T12:02:43.644Z,51.10
2019-04-05T12:07:34.566Z,55.50
2019-04-05T12:12:25.776Z,48.80
2019-04-05T12:17:16.402Z,50.80
2019-04-05T12:22:09.206Z,48.50
2019-04-05T12:26:58.239Z,50.28
2019-04-05T12:31:49.155Z,46.73
2019-04-05T12:36:40.058Z,48.90
2019-04-05T12:41:30.958Z,51.37
2019-04-05T12:46:22.605Z,43.33
2019-04-05T12:51:15.698Z,49.50
2019-04-05T12:56:04.504Z,50.28
2019-04-05T13:00:56.343Z,44.60
2019-04-05T13:05:47.199Z,46.90
2019-04-05T13:10:38.112Z,41.70
2019-04-05T13:15:29.031Z,42.33
2019-04-05T13:20:20.108Z,47.22
2019-04-05T13:25:11.562Z,50.23
2019-04-05T13:30:01.974Z,45.60
2019-04-05T13:34:55.873Z,42.43
2019-04-05T13:39:44.559Z,44.23
2019-04-05T13:44:35.479Z,43.13
2019-04-05T13:49:26.406Z,41.95
2019-04-05T13:54:17.312Z,40.37
2019-04-05T13:59:08.318Z,45.55
2019-04-05T14:03:59.991Z,34.83
2019-04-05T14:08:50.898Z,34.70
2019-04-05T14:13:42.970Z,40.60
2019-04-05T14:18:32.745Z,35.87
2019-04-05T14:23:24.120Z,41.20
2019-04-05T14:28:14.585Z,37.83
2019-04-05T14:33:05.494Z,36.57
2019-04-05T14:37:56.471Z,33.07
2019-04-05T14:42:48.142Z,37.00
2019-04-05T14:47:41.393Z,31.00
2019-04-05T14:52:31.243Z,39.30
2019-04-05T14:57:20.989Z,35.97
2019-04-05T15:02:11.884Z,36.87
2019-04-05T15:07:03.518Z,29.37
2019-04-05T15:11:58.345Z,30.97
2019-04-05T15:16:46.189Z,35.17
2019-04-05T15:21:39.060Z,37.83
2019-04-05T15:26:28.796Z,34.08
2019-04-05T15:31:19.698Z,33.17
2019-04-05T15:36:10.615Z,32.33
2019-04-05T15:41:01.550Z,34.40
2019-04-05T15:45:52.460Z,36.38
2019-04-05T15:50:43.394Z,34.10
2019-04-05T15:55:34.706Z,38.03
2019-04-05T16:00:38.586Z,31.53
2019-04-05T16:05:30.379Z,34.13
2019-04-05T16:10:21.304Z,36.10
2019-04-05T16:15:12.250Z,32.40
2019-04-05T16:20:03.277Z,33.05
2019-04-05T16:24:54.141Z,29.30
2019-04-05T16:29:45.131Z,32.70
2019-04-05T16:34:36.031Z,35.80
2019-04-05T16:39:27.708Z,32.67
2019-04-05T16:44:18.638Z,33.10
2019-04-05T16:49:09.539Z,34.22
2019-04-05T16:54:00.442Z,35.63
2019-04-05T16:58:51.918Z,41.63
2019-04-05T17:03:42.932Z,35.37
2019-04-05T17:08:33.832Z,35.05
2019-04-05T17:13:24.887Z,36.77
2019-04-05T17:18:17.296Z,40.63
2019-04-05T17:23:08.203Z,38.83
2019-04-05T17:27:59.168Z,39.27
2019-04-05T17:32:50.086Z,42.53
2019-04-05T17:37:40.994Z,41.57
2019-04-05T17:42:34.638Z,42.90
2019-04-05T17:47:22.857Z,42.80
2019-04-05T17:52:13.755Z,38.87
2019-04-05T17:57:04.650Z,44.50
2019-04-05T18:01:55.563Z,40.60
2019-04-05T18:06:46.471Z,43.87
2019-04-05T18:11:37.398Z,46.80
2019-04-05T18:16:28.344Z,45.67
2019-04-05T18:21:19.238Z,40.53
2019-04-05T18:26:10.156Z,45.73
2019-04-05T18:31:01.093Z,46.10
2019-04-05T18:35:52.012Z,43.05
2019-04-05T18:40:42.938Z,44.53
2019-04-05T18:45:33.853Z,44.35
2019-04-05T18:50:24.758Z,39.07
2019-04-05T18:55:15.660Z,45.20
2019-04-05T19:00:06.578Z,43.77
2019-04-05T19:04:57.511Z,47.45
2019-04-05T19:09:48.417Z,50.13
2019-04-05T19:14:39.318Z,45.20
2019-04-05T19:19:30.978Z,43.87
2019-04-05T19:24:22.286Z,38.53
2019-04-05T19:29:13.939Z,40.67
2019-04-05T19:48:37.651Z,47.40
2019-04-05T19:53:28.563Z,45.57
2019-04-05T19:58:19.528Z,42.23
2019-04-05T20:03:11.230Z,48.27
2019-04-05T20:08:02.170Z,44.42
2019-04-05T20:12:53.200Z,42.47
2019-04-05T20:17:44.942Z,47.90
2019-04-05T20:22:36.666Z,40.27
2019-04-05T20:27:27.728Z,42.93
2019-04-05T20:32:18.682Z,45.93
2019-04-05T20:37:09.624Z,45.23
2019-04-05T20:42:00.636Z,40.45
2019-04-05T20:46:51.558Z,41.27
2019-04-05T20:51:42.579Z,44.50
2019-04-05T20:56:33.490Z,43.40
2019-04-05T21:01:24.446Z,39.43
2019-04-05T21:06:17.227Z,42.57
2019-04-05T21:11:08.091Z,43.35
2019-04-05T21:15:59.017Z,44.03
2019-04-05T21:20:50.042Z,39.57
2019-04-05T21:25:41.072Z,42.47
2019-04-05T21:30:32.078Z,41.47
2019-04-05T21:35:22.999Z,46.63
2019-04-05T21:40:14.737Z,41.30
2019-04-05T21:45:07.125Z,43.90
2019-04-05T21:49:58.779Z,44.05
2019-04-05T21:54:49.734Z,42.63
2019-04-05T21:59:40.642Z,44.20
2019-04-05T22:04:31.550Z,43.33
2019-04-05T22:09:22.503Z,48.70
2019-04-05T22:14:14.444Z,51.63
2019-04-05T22:19:07.402Z,49.30
2019-04-05T22:23:58.322Z,47.55
2019-04-05T22:28:49.252Z,44.93
2019-04-05T22:33:40.258Z,53.30
2019-04-05T22:38:31.219Z,49.20
2019-04-05T22:43:22.876Z,51.47
2019-04-05T22:48:13.818Z,45.57
2019-04-05T22:53:04.728Z,43.03
2019-04-05T22:57:55.681Z,45.50
2019-04-05T23:02:46.587Z,47.30
2019-04-05T23:07:37.490Z,45.90
2019-04-05T23:12:28.390Z,49.93
2019-04-05T23:17:19.322Z,48.60
2019-04-05T23:22:10.291Z,44.40
2019-04-05T23:27:01.943Z,52.27
2019-04-05T23:31:53.598Z,49.80
2019-04-05T23:36:44.502Z,47.63
2019-04-05T23:41:36.148Z,42.90
2019-04-05T23:46:27.129Z,49.87
2019-04-05T23:51:18.024Z,42.00
2019-04-05T23:56:08.926Z,50.50
